This is the latest recevied weather packets stored in our database for station/object W4DEX-2. If no packets are shown the sender has not sent any weather packets the latest 10 day(s).
| Time | Temp. | Humidity | Pressure | Rain* | Wind** | Luminosity | Snow |
|---|---|---|---|---|---|---|---|
| 1777671002 | 13.89° C | 63% | 1011.9 hPa | 0 mm | 4.92 m/s, 176° | - | - |
| 1777670702 | 13.33° C | 63% | 1012 hPa | 0 mm | 5.81 m/s, 175° | - | - |
| 1777670102 | 13.33° C | 63% | 1011.9 hPa | 0 mm | 5.36 m/s, 178° | - | - |
| 1777669802 | 13.33° C | 63% | 1012.2 hPa | 0 mm | 4.92 m/s, 176° | - | - |
| 1777669502 | 13.33° C | 62% | 1012.4 hPa | 0 mm | 5.36 m/s, 170° | - | - |
| 1777669202 | 13.89° C | 62% | 1012.2 hPa | 0 mm | 4.92 m/s, 176° | - | - |
| 1777668903 | 13.89° C | 61% | 1012.6 hPa | 0 mm | 5.81 m/s, 178° | - | - |
| 1777668302 | 14.44° C | 62% | 1012.4 hPa | 0 mm | 5.36 m/s, 173° | - | - |
| 1777668002 | 13.89° C | 61% | 1012.3 hPa | 0 mm | 4.92 m/s, 175° | - | - |
| 1777667402 | 13.89° C | 63% | 1012.4 hPa | 0 mm | 5.36 m/s, 175° | - | - |
| 1777667102 | 13.89° C | 62% | 1012.4 hPa | 0 mm | 5.36 m/s, 174° | - | - |
| 1777666202 | 14.44° C | 62% | 1012.7 hPa | 0 mm | 5.36 m/s, 178° | - | - |
| 1777665902 | 14.44° C | 63% | 1012.8 hPa | 0 mm | 5.81 m/s, 175° | - | - |
| 1777665602 | 13.89° C | 64% | 1012.7 hPa | 0 mm | 4.92 m/s, 172° | - | - |
| 1777664702 | 13.89° C | 65% | 1013.4 hPa | 0 mm | 5.81 m/s, 176° | - | - |
| 1777664402 | 13.33° C | 65% | 1013.2 hPa | 0 mm | 4.92 m/s, 174° | - | - |
| 1777663803 | 13.33° C | 65% | 1013.5 hPa | 0 mm | 5.81 m/s, 175° | - | - |
| 1777663502 | 13.33° C | 64% | 1013.8 hPa | 0 mm | 5.81 m/s, 170° | - | - |
| 1777663202 | 13.33° C | 65% | 1013.8 hPa | 0 mm | 5.36 m/s, 175° | - | - |
| 1777662902 | 13.33° C | 64% | 1013.9 hPa | 0 mm | 5.36 m/s, 178° | - | - |
| 1777661103 | 13.89° C | 64% | 1014 hPa | 0 mm | 4.92 m/s, 176° | - | - |
| 1777660802 | 13.89° C | 63% | 1013.8 hPa | 0 mm | 4.92 m/s, 180° | - | - |
| 1777660502 | 13.33° C | 63% | 1013.8 hPa | 0 mm | 5.36 m/s, 174° | - | - |
| 1777659602 | 13.33° C | 59% | 1014 hPa | 0 mm | 5.36 m/s, 176° | - | - |
| 1777659302 | 13.89° C | 57% | 1013.8 hPa | 0 mm | 5.36 m/s, 177° | - | - |
* Rain latest hour (hover to see other rain measurements)
** Current wind speed in m/s (hover to see current wind gust speed)